createdAt,value
2018-09-06T00:01:58.159Z,20.88
2018-09-06T00:04:31.761Z,20.90
2018-09-06T00:07:05.617Z,19.40
2018-09-06T00:09:39.412Z,20.83
2018-09-06T00:18:12.091Z,22.52
2018-09-06T00:26:50.140Z,20.85
2018-09-06T00:29:24.048Z,20.33
2018-09-06T00:31:57.897Z,19.77
2018-09-06T00:34:32.454Z,21.70
2018-09-06T00:37:06.252Z,21.50
2018-09-06T00:39:40.034Z,21.05
2018-09-06T00:45:12.937Z,20.95
2018-09-06T00:47:46.713Z,20.83
2018-09-06T00:50:20.524Z,22.92
2018-09-06T00:52:55.057Z,20.75
2018-09-06T00:55:29.451Z,19.60
2018-09-06T00:58:03.260Z,21.50
2018-09-06T01:00:36.944Z,20.12
2018-09-06T01:03:10.743Z,21.45
2018-09-06T01:05:54.243Z,20.88
2018-09-06T01:08:28.147Z,21.65
2018-09-06T01:11:01.919Z,20.80
2018-09-06T01:16:35.197Z,21.50
2018-09-06T01:19:09.079Z,20.02
2018-09-06T01:21:43.636Z,20.45
2018-09-06T01:27:17.269Z,20.25
2018-09-06T01:29:51.127Z,21.02
2018-09-06T01:32:25.049Z,20.65
2018-09-06T01:34:58.951Z,21.62
2018-09-06T01:37:32.716Z,21.73
2018-09-06T01:40:06.543Z,21.48
2018-09-06T01:42:41.053Z,20.50
2018-09-06T01:45:14.816Z,21.45
2018-09-06T01:47:48.692Z,23.12
2018-09-06T01:53:28.701Z,21.50
2018-09-06T01:56:02.476Z,22.42
2018-09-06T02:04:35.163Z,22.05
2018-09-06T02:10:09.507Z,24.65
2018-09-06T02:12:43.287Z,27.00
2018-09-06T02:15:20.475Z,27.52
2018-09-06T02:17:58.395Z,27.90
2018-09-06T02:20:32.152Z,24.77
2018-09-06T02:26:05.091Z,23.83
2018-09-06T02:31:38.412Z,23.05
2018-09-06T02:34:12.127Z,22.40
2018-09-06T02:36:46.752Z,22.87
2018-09-06T02:39:20.543Z,23.17
2018-09-06T02:44:54.252Z,23.70
2018-09-06T02:53:26.720Z,22.80
2018-09-06T02:56:00.474Z,22.27
2018-09-06T02:58:34.274Z,22.65
2018-09-06T03:07:10.287Z,23.45
2018-09-06T03:09:44.021Z,23.52
2018-09-06T03:15:21.692Z,24.58
2018-09-06T03:20:55.083Z,26.73
2018-09-06T03:23:28.956Z,24.52
2018-09-06T03:26:02.682Z,26.15
2018-09-06T03:28:36.364Z,26.20
2018-09-06T03:34:09.488Z,25.50
2018-09-06T03:39:42.808Z,26.23
2018-09-06T03:45:17.243Z,27.13
2018-09-06T03:53:49.418Z,28.05
2018-09-06T03:56:23.267Z,28.30
2018-09-06T04:04:56.506Z,26.75
2018-09-06T04:10:29.229Z,25.05
2018-09-06T04:16:02.893Z,27.20
2018-09-06T04:18:36.828Z,26.62
2018-09-06T04:24:11.170Z,27.50
2018-09-06T04:26:53.288Z,26.85
2018-09-06T04:32:26.246Z,27.17
2018-09-06T04:37:59.501Z,27.67
2018-09-06T04:40:33.289Z,26.40
2018-09-06T04:43:07.041Z,26.67
2018-09-06T04:45:40.821Z,27.90
2018-09-06T04:48:14.627Z,28.00
2018-09-06T04:50:59.040Z,27.05
2018-09-06T04:53:32.969Z,29.75
2018-09-06T04:56:06.683Z,29.00
2018-09-06T04:58:40.447Z,26.80
2018-09-06T05:01:14.981Z,27.55
2018-09-06T05:03:48.772Z,26.58
2018-09-06T05:06:22.775Z,27.15
2018-09-06T05:08:56.560Z,24.83
2018-09-06T05:11:31.678Z,28.50
2018-09-06T05:14:05.456Z,29.08
2018-09-06T05:16:39.267Z,29.42
2018-09-06T05:19:17.210Z,28.92
2018-09-06T05:21:59.588Z,25.45
2018-09-06T05:33:24.467Z,28.20
2018-09-06T05:35:58.195Z,27.62
2018-09-06T05:41:31.201Z,27.70
2018-09-06T05:44:05.085Z,28.23
2018-09-06T05:46:39.636Z,28.80
2018-09-06T05:49:13.309Z,30.30
2018-09-06T05:57:46.185Z,31.20
2018-09-06T06:00:20.822Z,29.35
2018-09-06T06:02:54.461Z,28.55
2018-09-06T06:05:28.211Z,30.50
2018-09-06T06:14:00.356Z,31.65
2018-09-06T06:16:34.191Z,34.75
2018-09-06T06:22:07.524Z,34.92
2018-09-06T06:24:41.252Z,35.35
2018-09-06T06:27:15.875Z,33.40
2018-09-06T06:35:49.082Z,32.55
2018-09-06T06:38:22.783Z,32.97
2018-09-06T06:46:55.124Z,33.13
2018-09-06T06:49:29.564Z,31.73
2018-09-06T06:52:03.291Z,30.70
2018-09-06T06:54:43.223Z,32.15
2018-09-06T07:03:01.850Z,30.20
2018-09-06T07:05:35.532Z,33.78
2018-09-06T07:08:09.339Z,32.47
2018-09-06T07:13:42.601Z,30.35
2018-09-06T07:16:16.410Z,31.83
2018-09-06T07:18:50.232Z,32.00
2018-09-06T07:21:24.948Z,29.87
2018-09-06T07:23:58.809Z,31.37
2018-09-06T07:26:32.550Z,31.05
2018-09-06T07:29:06.477Z,31.00
2018-09-06T07:31:40.390Z,29.55
2018-09-06T07:34:14.255Z,30.37
2018-09-06T07:36:48.036Z,31.80
2018-09-06T07:39:21.811Z,31.08
2018-09-06T07:44:54.782Z,29.20
2018-09-06T07:47:28.612Z,29.73
2018-09-06T07:53:03.321Z,39.37
2018-09-06T07:55:43.793Z,30.37
2018-09-06T08:01:00.270Z,27.13
2018-09-06T08:03:34.086Z,26.73
2018-09-06T08:06:09.834Z,29.67
2018-09-06T08:08:43.730Z,26.70
2018-09-06T08:14:17.383Z,24.57
2018-09-06T08:16:51.231Z,23.30
2018-09-06T08:19:25.887Z,24.30
2018-09-06T08:21:59.595Z,21.07
2018-09-06T08:24:33.420Z,28.00
2018-09-06T08:27:07.223Z,24.37
2018-09-06T08:35:40.691Z,22.77
2018-09-06T08:38:14.456Z,20.97
2018-09-06T08:40:52.300Z,18.67
2018-09-06T08:43:26.844Z,18.07
2018-09-06T08:46:01.264Z,17.80
2018-09-06T08:48:35.068Z,17.97
2018-09-06T08:51:08.960Z,15.80
2018-09-06T08:53:43.400Z,15.27
2018-09-06T08:56:17.219Z,14.30
2018-09-06T09:01:51.530Z,15.90
2018-09-06T09:04:25.416Z,15.00
2018-09-06T09:06:59.990Z,15.10
2018-09-06T09:09:33.757Z,15.17
2018-09-06T09:12:07.356Z,14.50
2018-09-06T09:14:41.273Z,13.57
2018-09-06T09:17:22.959Z,16.37
2018-09-06T09:22:55.848Z,13.70
2018-09-06T09:25:30.408Z,13.50
2018-09-06T09:28:04.258Z,14.17
2018-09-06T09:30:38.064Z,12.53
2018-09-06T09:33:11.941Z,12.90
2018-09-06T09:35:46.632Z,17.60
2018-09-06T09:38:20.259Z,14.03
2018-09-06T09:43:52.953Z,12.13
2018-09-06T09:52:03.101Z,11.07
2018-09-06T09:57:36.427Z,10.83
2018-09-06T10:00:10.221Z,13.07
2018-09-06T10:02:44.032Z,11.97
2018-09-06T10:05:21.852Z,18.17
2018-09-06T10:07:55.734Z,10.30
2018-09-06T10:10:29.439Z,10.90
2018-09-06T10:13:08.752Z,9.70
2018-09-06T10:15:42.642Z,10.50
2018-09-06T10:18:16.566Z,11.70
2018-09-06T10:20:51.136Z,10.57
2018-09-06T10:23:25.023Z,12.30
2018-09-06T10:25:58.824Z,11.10
2018-09-06T10:34:38.149Z,10.90
2018-09-06T10:37:15.633Z,8.63
2018-09-06T10:42:56.188Z,9.43
2018-09-06T10:45:29.911Z,19.80
2018-09-06T10:48:06.521Z,10.40
2018-09-06T10:50:40.213Z,8.70
2018-09-06T10:53:13.879Z,9.80
2018-09-06T10:55:47.774Z,8.60
2018-09-06T10:58:21.628Z,8.50
2018-09-06T11:00:55.321Z,9.00
2018-09-06T11:03:29.072Z,8.87
2018-09-06T11:06:02.856Z,10.00
2018-09-06T11:08:36.697Z,9.70
2018-09-06T11:11:11.570Z,10.23
2018-09-06T11:13:46.122Z,11.47
2018-09-06T11:16:23.018Z,9.97
2018-09-06T11:18:59.583Z,8.97
2018-09-06T11:21:33.413Z,9.00
2018-09-06T11:24:07.148Z,12.63
2018-09-06T11:26:40.874Z,10.60
2018-09-06T11:29:18.890Z,10.90
2018-09-06T11:34:52.258Z,9.50
2018-09-06T11:37:25.991Z,8.07
2018-09-06T11:40:03.862Z,8.50
2018-09-06T11:42:37.650Z,7.40
2018-09-06T11:45:11.444Z,7.57
2018-09-06T11:47:46.132Z,7.77
2018-09-06T11:50:27.303Z,7.20
2018-09-06T11:56:01.394Z,8.90
2018-09-06T11:58:35.144Z,8.13
2018-09-06T12:04:08.880Z,9.83
2018-09-06T12:06:42.698Z,9.33
2018-09-06T12:09:16.695Z,11.40
2018-09-06T12:11:50.394Z,10.80
2018-09-06T12:14:24.188Z,8.97
2018-09-06T12:16:58.765Z,9.50
2018-09-06T12:19:32.676Z,10.00
2018-09-06T12:22:06.451Z,10.90
2018-09-06T12:24:40.259Z,11.67
2018-09-06T12:27:14.212Z,9.20
2018-09-06T12:29:47.958Z,9.87
2018-09-06T12:32:21.752Z,10.17
2018-09-06T12:34:55.560Z,9.50
2018-09-06T12:37:29.257Z,10.23
2018-09-06T12:40:03.905Z,9.50
2018-09-06T12:42:37.540Z,8.90
2018-09-06T12:45:11.407Z,8.30
2018-09-06T12:47:45.120Z,8.10
2018-09-06T12:50:21.856Z,10.43
2018-09-06T12:52:55.482Z,8.30
2018-09-06T12:55:29.244Z,8.90
2018-09-06T12:58:02.990Z,10.77
2018-09-06T13:00:36.919Z,8.20
2018-09-06T13:03:11.507Z,7.17
2018-09-06T13:05:45.289Z,6.57
2018-09-06T13:08:19.806Z,7.00
2018-09-06T13:10:53.612Z,7.17
2018-09-06T13:13:27.464Z,7.07
2018-09-06T13:16:01.248Z,8.10
2018-09-06T13:21:34.723Z,7.03
2018-09-06T13:24:09.224Z,8.10
2018-09-06T13:26:42.966Z,7.37
2018-09-06T13:29:16.701Z,7.30
2018-09-06T13:31:51.179Z,7.03
2018-09-06T13:34:24.880Z,6.80
2018-09-06T13:39:57.827Z,11.10
2018-09-06T13:45:41.160Z,8.53
2018-09-06T13:48:15.018Z,8.43
2018-09-06T13:50:48.881Z,9.13
2018-09-06T13:56:21.692Z,9.40
2018-09-06T14:01:56.090Z,9.33
2018-09-06T14:04:30.454Z,8.17
2018-09-06T14:07:05.195Z,10.93
2018-09-06T14:12:38.067Z,9.70
2018-09-06T14:15:11.989Z,10.00
2018-09-06T14:17:45.934Z,10.43
2018-09-06T14:20:19.719Z,9.93
2018-09-06T14:22:54.388Z,10.20
2018-09-06T14:25:28.115Z,10.23
2018-09-06T14:28:01.893Z,10.13
2018-09-06T14:30:35.763Z,9.80
2018-09-06T14:36:10.146Z,10.90
2018-09-06T14:44:43.604Z,10.53
2018-09-06T14:47:17.432Z,9.60
2018-09-06T14:55:41.228Z,10.93
2018-09-06T15:04:10.548Z,11.10
2018-09-06T15:06:44.449Z,11.63
2018-09-06T15:12:18.025Z,11.07
2018-09-06T15:17:51.432Z,11.63
2018-09-06T15:20:25.228Z,11.80
2018-09-06T15:22:58.981Z,10.73
2018-09-06T15:25:32.717Z,11.77
2018-09-06T15:28:07.385Z,13.60
2018-09-06T15:30:40.998Z,13.73
2018-09-06T15:33:14.832Z,14.97
2018-09-06T15:35:49.420Z,11.33
2018-09-06T15:38:23.310Z,21.20
2018-09-06T15:40:57.208Z,9.43
2018-09-06T15:43:31.024Z,9.57
2018-09-06T15:46:05.532Z,9.82
2018-09-06T15:48:39.304Z,10.65
2018-09-06T15:51:13.184Z,9.93
2018-09-06T15:53:47.754Z,9.53
2018-09-06T15:56:21.573Z,10.75
2018-09-06T15:58:55.975Z,10.05
2018-09-06T16:01:30.576Z,8.90
2018-09-06T16:04:04.421Z,8.93
2018-09-06T16:06:38.079Z,9.43
2018-09-06T16:09:11.904Z,8.90
2018-09-06T16:11:45.760Z,8.52
2018-09-06T16:14:19.603Z,8.88
2018-09-06T16:16:53.544Z,8.60
2018-09-06T16:19:27.124Z,8.60
2018-09-06T16:22:00.876Z,7.65
2018-09-06T16:27:34.695Z,7.85
2018-09-06T16:33:08.277Z,9.82
2018-09-06T16:35:42.135Z,21.02
2018-09-06T16:38:16.732Z,11.15
2018-09-06T16:40:50.871Z,9.68
2018-09-06T16:43:24.598Z,7.00
2018-09-06T16:45:58.464Z,7.03
2018-09-06T16:48:32.207Z,7.85
2018-09-06T16:51:06.787Z,7.00
2018-09-06T16:53:40.508Z,8.38
2018-09-06T16:56:14.405Z,7.82
2018-09-06T17:01:47.484Z,6.87
2018-09-06T17:04:21.305Z,6.80
2018-09-06T17:12:53.884Z,7.25
2018-09-06T17:15:27.645Z,7.25
2018-09-06T17:18:01.330Z,8.77
2018-09-06T17:20:35.909Z,7.97
2018-09-06T17:23:09.744Z,9.93
2018-09-06T17:25:43.504Z,8.77
2018-09-06T17:28:17.436Z,9.68
2018-09-06T17:30:51.166Z,13.95
2018-09-06T17:33:24.849Z,9.95
2018-09-06T17:35:58.520Z,12.13
2018-09-06T17:38:33.118Z,10.90
2018-09-06T17:41:06.801Z,10.70
2018-09-06T17:43:40.487Z,12.10
2018-09-06T17:46:14.950Z,11.80
2018-09-06T17:51:48.640Z,11.77
2018-09-06T17:54:22.403Z,10.98
2018-09-06T17:56:56.128Z,10.52
2018-09-06T18:02:30.061Z,11.00
2018-09-06T18:05:03.875Z,11.70
2018-09-06T18:07:37.720Z,10.15
2018-09-06T18:10:11.525Z,11.73
2018-09-06T18:15:44.309Z,11.43
2018-09-06T18:18:18.849Z,12.90
2018-09-06T18:20:53.370Z,11.85
2018-09-06T18:23:27.188Z,10.80
2018-09-06T18:26:00.948Z,13.30
2018-09-06T18:28:35.597Z,11.00
2018-09-06T18:40:09.164Z,11.82
2018-09-06T18:42:42.921Z,12.20
2018-09-06T18:45:40.359Z,11.98
2018-09-06T18:51:14.159Z,12.98
2018-09-06T18:53:47.940Z,12.95
2018-09-06T18:56:21.825Z,14.43
2018-09-06T18:58:56.367Z,12.30
2018-09-06T19:01:35.245Z,13.98
2018-09-06T19:04:09.714Z,14.07
2018-09-06T19:06:44.226Z,14.13
2018-09-06T19:12:17.695Z,14.20
2018-09-06T19:17:50.991Z,14.23
2018-09-06T19:20:24.642Z,14.98
2018-09-06T19:26:02.572Z,13.90
2018-09-06T19:28:37.274Z,14.95
2018-09-06T19:31:10.888Z,12.90
2018-09-06T19:33:44.628Z,13.30
2018-09-06T19:36:18.394Z,16.73
2018-09-06T19:41:51.730Z,14.60
2018-09-06T19:44:25.451Z,17.00
2018-09-06T19:49:59.012Z,16.62
2018-09-06T19:52:33.604Z,17.05
2018-09-06T19:55:08.284Z,17.80
2018-09-06T20:00:41.975Z,17.58
2018-09-06T20:03:15.715Z,16.98
2018-09-06T20:05:54.507Z,17.98
2018-09-06T20:08:28.189Z,18.77
2018-09-06T20:17:01.498Z,20.23
2018-09-06T20:25:34.668Z,20.12
2018-09-06T20:28:08.597Z,19.85
2018-09-06T20:30:42.286Z,18.62
2018-09-06T20:33:16.786Z,18.15
2018-09-06T20:35:51.224Z,18.00
2018-09-06T20:38:24.964Z,19.05
2018-09-06T20:40:58.761Z,19.58
2018-09-06T20:43:32.551Z,20.08
2018-09-06T20:46:06.292Z,18.37
2018-09-06T20:48:40.058Z,18.60
2018-09-06T20:51:14.778Z,19.90
2018-09-06T20:53:48.665Z,18.30
2018-09-06T20:56:22.542Z,19.37
2018-09-06T20:58:56.292Z,18.70
2018-09-06T21:01:30.005Z,16.35
2018-09-06T21:07:03.709Z,14.50
2018-09-06T21:09:37.433Z,16.37
2018-09-06T21:12:11.209Z,14.25
2018-09-06T21:14:49.802Z,13.68
2018-09-06T21:17:23.634Z,13.95
2018-09-06T21:19:57.433Z,14.02
2018-09-06T21:22:31.319Z,13.93
2018-09-06T21:28:05.352Z,14.68
2018-09-06T21:33:38.925Z,13.57
2018-09-06T21:36:13.572Z,13.85
2018-09-06T21:38:47.226Z,13.15
2018-09-06T21:44:20.244Z,12.43
2018-09-06T21:46:54.097Z,13.62
2018-09-06T21:49:32.797Z,12.25
2018-09-06T21:52:07.270Z,13.27
2018-09-06T21:54:41.813Z,13.10
2018-09-06T21:57:15.708Z,13.00
2018-09-06T21:59:49.408Z,13.43
2018-09-06T22:05:23.048Z,14.15
2018-09-06T22:10:56.632Z,14.45
2018-09-06T22:13:30.388Z,15.00
2018-09-06T22:16:04.184Z,13.98
2018-09-06T22:21:37.699Z,14.65
2018-09-06T22:27:11.044Z,14.15
2018-09-06T22:29:44.837Z,14.20
2018-09-06T22:32:18.588Z,13.80
2018-09-06T22:37:52.020Z,13.32
2018-09-06T22:40:26.608Z,13.48
2018-09-06T22:45:59.383Z,13.35
2018-09-06T22:48:48.000Z,13.52
2018-09-06T22:51:21.864Z,13.45
2018-09-06T22:59:55.769Z,10.75
2018-09-06T23:02:29.492Z,11.90
2018-09-06T23:05:03.256Z,12.52
2018-09-06T23:07:37.060Z,10.77
2018-09-06T23:16:09.897Z,10.20
2018-09-06T23:21:44.984Z,10.40
2018-09-06T23:24:18.777Z,9.98
2018-09-06T23:26:52.549Z,10.30
2018-09-06T23:32:26.168Z,10.18
2018-09-06T23:40:58.983Z,10.15
2018-09-06T23:43:32.746Z,10.85
2018-09-06T23:46:06.676Z,10.70
2018-09-06T23:48:40.496Z,11.70
2018-09-06T23:54:13.765Z,10.80
2018-09-06T23:56:47.654Z,9.20
